Tiempo atmosférico en la estación meteorológica de Frontera, Sabinosa, Santa Cruz de Tenerife (20 m.)



Fecha
DESCASC
Temp. máxima en grados centígrados (hora)
DESCASC
Temp. mínima en grados centígrados (hora)
DESCASC
Temp. media en grados centígrados
DESCASC
Racha de viento máxima en m/sg (hora)
DESCASC
Velocidad máxima media en intervalos de 10 minutos(hora)
DESCASC
Precipitaciones diarias en mm
DESCASC
Precipitaciones de 00:00 a 06:00 en mm
DESCASC
Precipitaciones de 06:00 a 12:00 en mm
DESCASC
Precipitaciones de 12:00 a 18:00 en mm
DESCASC
Precipitaciones de 18:00 a 24:00 en mm
DESCASC
07-01-2021 21.5 (12:30) 18.9 (00:00) 20.2 28.06 (13:10) 16.94 (13:10) 3.4 3 0.4 0 0
21-01-2021 22.1 (14:40) 16.6 (00:00) 19.4 7.78 (22:30) 4.44 (22:20) 0 0 0 0 0
20-01-2021 20.5 (15:20) 14.4 (00:00) 17.4 4.72 (23:00) 3.61 (19:10) 0 0 0 0 0
19-01-2021 20.5 (13:00) 14.2 (00:00) 17.3 5.28 (02:00) 3.61 (07:50) 0 0 0 0 0
18-01-2021 22.1 (15:20) 15.1 (00:00) 18.6 6.94 (12:50) 5 (12:50) 0 0 0 0 0
17-01-2021 21.4 (15:10) 15.9 (00:00) 18.6 8.89 (01:40) 5.56 (00:30) 0 0 0 0 0
16-01-2021 19.9 (14:00) 16.8 (00:00) 18.3 11.39 (10:30) 6.39 (04:50) 0 0 0 0 0
15-01-2021 19.2 (13:20) 15.6 (00:00) 17.4 10.56 (14:20) 6.67 (14:10) 0 0 0 0 0
14-01-2021 20.7 (11:50) 15.5 (04:00) 18.1 9.44 (23:50) 6.11 (14:30) 0 0 0 0 0
13-01-2021 19.4 (10:20) 15.9 (00:00) 17.6 9.44 (12:00) 5.83 (13:30) 0 0 0 0 0
12-01-2021 18.4 (11:20) 15.1 (00:00) 16.8 10.56 (00:10) 6.11 (02:00) 0 0 0 0 0
11-01-2021 18.4 (13:00) 15.8 (00:00) 17.1 10 (07:00) 6.11 (01:00) 0 0 0 0 0
10-01-2021 18.3 (14:20) 15.3 (02:20) 16.8 10.28 (04:10) 7.5 (05:50) 0 0 0 0 0
09-01-2021 17.8 (14:50) 15.5 (00:00) 16.6 15.56 (11:50) 8.61 (08:30) 0 0 0 0 0
08-01-2021 19 (00:00) 16.7 (00:00) 17.9 13.33 (14:50) 8.33 (09:10) 0 0 0 0 0
23-12-2020 24.9 (13:40) 14.6 (04:00) 19.8 17.78 (17:00) 11.39 (19:00) 0 0 0 0 0
06-01-2021 21.6 (14:30) 20.2 (00:00) 20.9 29.17 (09:50) 15.83 (09:50) 11.4 1 10.4 0 0
05-01-2021 21.2 (15:20) 18 (00:00) 19.6 13.61 (17:20) 6.67 (14:30) 3.4 0.4 2.6 0 0.4
04-01-2021 22.9 (04:30) 18.4 (00:00) 20.6 28.89 (14:30) 15.83 (15:20) 1.8 0.4 0 0 1.4
03-01-2021 20.5 (14:20) 16.2 (00:00) 18.4 4.72 (19:10) 2.78 (19:10) 0.2 0 0.2 0 0
02-01-2021 19.4 (15:30) 15.8 (00:00) 17.6 6.94 (09:40) 5 (09:40) 0 0 0 0 0
01-01-2021 20 (12:40) 15.4 (00:00) 17.7 8.61 (21:40) 5.28 (21:20) 0 0 0 0 0
31-12-2020 19.9 (12:50) 15.2 (00:00) 17.5 7.5 (12:10) 4.72 (15:20) 0 0 0 0 0
29-12-2020 20.7 (11:10) 15.6 (00:00) 18.2 4.44 (13:00) 3.33 (05:30) 0 0 0 0 0
27-12-2020 21.7 (10:30) 16.4 (00:00) 19.1 4.72 (00:50) 3.06 (08:10) 0.2 0 0 0 0.2
25-12-2020 24.2 (13:00) 18.8 (00:00) 21.5 18.33 (01:00) 12.5 (01:00) 0.2 0 0 0 0.2
24-12-2020 23.8 (12:50) 19.4 (00:00) 21.6 27.5 (09:30) 18.33 (05:50) 0 0 0 0 0
26-12-2020 21.5 (14:20) 17.1 (00:00) 19.3 6.94 (01:30) 4.72 (01:30) 6.6 5.6 0.6 0.4 0
28-12-2020 20.5 (10:30) 16.3 (00:00) 18.4 4.17 (23:20) 3.06 (21:20) 2 0 0 2 0
30-12-2020 20.1 (11:40) 15.4 (00:00) 17.8 7.5 (02:30) 4.44 (02:00) 14.2 0 0 14.2 0

Gráficas

Temp. máximas Temp. mínimas Temp. medias Precipitaciones Rachas de viento máximas Velocidades máximas media en intervalos de 10 minutos

Datos horarios

Fecha y hora oficial Temperatura (ºC) Velocidad del viento (km/h) Dirección del viento Racha (km/h) Dirección de racha Precipitación (mm) Presión (hPa) Tendencia (hPa) Humedad (%)
2021-01-21 23:00:00 19.2 8 Sudeste 28 Nordeste 0 -- -- 85
2021-01-21 22:00:00 19.8 5 Este 14 Nordeste 0 -- -- 78
2021-01-21 21:00:00 19.8 7 Este 14 Este 0 -- -- 79
2021-01-21 20:00:00 20.1 7 Este 13 Nordeste 0 -- -- 80
2021-01-21 19:00:00 20 5 Sur 7 Sudeste 0 -- -- 78
2021-01-21 18:00:00 20.2 3 Este 8 Este 0 -- -- 77
2021-01-21 17:00:00 20.2 4 Este 7 Este 0 -- -- 75
2021-01-21 16:00:00 20.6 4 Nordeste 9 Este 0 -- -- 73
2021-01-21 15:00:00 21.8 4 Nordeste 12 Este 0 -- -- 68
2021-01-21 14:00:00 21.9 6 Nordeste 13 Este 0 -- -- 68
2021-01-21 13:00:00 21.6 8 Nordeste 14 Nordeste 0 -- -- 68
2021-01-21 12:00:00 21.5 8 Este 18 Este 0 -- -- 68
2021-01-21 11:00:00 20.9 9 Este 15 Este 0 -- -- 69
2021-01-21 10:00:00 19.7 8 Sur 13 Sudeste 0 -- -- 73
2021-01-21 09:00:00 16.8 9 Sur 13 Sudeste 0 -- -- 80
2021-01-21 08:00:00 17.2 12 Sur 15 Sur 0 -- -- 78
2021-01-21 07:00:00 18 9 Sudeste 17 Sur 0 -- -- 77
2021-01-21 06:00:00 17.9 9 Sur 16 Sudeste 0 -- -- 78
2021-01-21 05:00:00 17.8 8 Sudeste 13 Sudeste 0 -- -- 79
2021-01-21 04:00:00 17.6 8 Sur 11 Sudeste 0 -- -- 80
2021-01-21 03:00:00 17 7 Sudeste 11 Sur 0 -- -- 81
2021-01-21 02:00:00 16.7 6 Sur 13 Sur 0 -- -- 79
2021-01-21 01:00:00 17.2 9 Sur 13 Sur 0 -- -- 77
2021-01-21 00:00:00 17.6 9 Sudeste 16 Sur 0 -- -- 76
2021-01-20 23:00:00 16.8 12 Sudeste 17 Sudeste 0 -- -- 76
2021-01-20 22:00:00 16.3 11 Sur 16 Sudeste 0 -- -- 76
2021-01-20 21:00:00 15.7 8 Sur 14 Sudeste 0 -- -- 74
2021-01-20 20:00:00 15.8 6 Sur 15 Sur 0 -- -- 73
2021-01-20 19:00:00 16.5 13 Sur 15 Sur 0 -- -- 74
2021-01-20 18:00:00 16.9 9 Sur 12 Sur 0 -- -- 72
2021-01-20 17:00:00 17.8 3 Sur 10 Sur 0 -- -- 70
2021-01-20 16:00:00 19.1 5 Nordeste 10 Nordeste 0 -- -- 63
2021-01-20 15:00:00 20 5 Este 10 Nordeste 0 -- -- 61
2021-01-20 14:00:00 19.4 4 Nordeste 10 Nordeste 0 -- -- 63
2021-01-20 13:00:00 20.1 5 Norte 9 Nordeste 0 -- -- 61
2021-01-20 12:00:00 20 4 Nordeste 8 Nordeste 0 -- -- 61
2021-01-20 11:00:00 19.7 3 Nordeste 10 Sudeste 0 -- -- 63
2021-01-20 10:00:00 18.1 4 Sudeste 13 Sur 0 -- -- 70
2021-01-20 09:00:00 15.2 8 Sur 14 Sur 0 -- -- 76
2021-01-20 08:00:00 14.5 8 Sur 13 Sur 0 -- -- 77
2021-01-20 07:00:00 15.3 7 Sur 15 Sudeste 0 -- -- 74
2021-01-20 06:00:00 15.4 12 Sur 15 Sur 0 -- -- 74
2021-01-20 05:00:00 14.9 7 Sur 13 Sur 0 -- -- 76
2021-01-20 04:00:00 14.9 10 Sur 13 Sur 0 -- -- 76
2021-01-20 03:00:00 14.7 8 Sudoeste 14 Sudoeste 0 -- -- 78
2021-01-20 02:00:00 14.8 10 Sudoeste 13 Sudoeste 0 -- -- 78
2021-01-20 01:00:00 15.4 8 Sudoeste 13 Sur 0 -- -- 77
2021-01-20 00:00:00 15.5 5 Sur 12 Sudoeste 0 -- -- 80
2021-01-19 23:00:00 15.2 6 Sudoeste 12 Sudoeste 0 -- -- 78
2021-01-19 22:00:00 15.7 7 Sudoeste 13 Sudoeste 0 -- -- 77
2021-01-19 21:00:00 15.3 6 Sudoeste 12 Sudoeste 0 -- -- 76
2021-01-19 20:00:00 15.6 9 Sur 13 Sur 0 -- -- 74
2021-01-19 19:00:00 15.9 8 Sudoeste 11 Sudoeste 0 -- -- 74
2021-01-19 18:00:00 17.2 4 Sur 10 Sudoeste 0 -- -- 73
2021-01-19 17:00:00 18.7 4 Sur 11 Nordeste 0 -- -- 71
2021-01-19 16:00:00 19.3 5 Norte 12 Norte 0 -- -- 67
2021-01-19 15:00:00 19.5 4 Nordeste 10 Este 0 -- -- 65
2021-01-19 14:00:00 20.4 6 Nordeste 12 Nordeste 0 -- -- 61
2021-01-19 13:00:00 20.5 7 Nordeste 12 Nordeste 0 -- -- 60
2021-01-19 12:00:00 20.1 5 Nordeste 10 Nordeste 0 -- -- 61
2021-01-19 11:00:00 20.1 5 Sudeste 10 Sudeste 0 -- -- 62
2021-01-19 10:00:00 18.4 3 Sudeste 14 Sur 0 -- -- 69
2021-01-19 09:00:00 15 11 Sur 16 Sur 0 -- -- 75
2021-01-19 08:00:00 14.9 12 Sur 17 Sudoeste 0 -- -- 75
2021-01-19 07:00:00 14.3 9 Sur 13 Sudoeste 0 -- -- 76
2021-01-19 06:00:00 14.5 8 Sudoeste 14 Sudoeste 0 -- -- 77
2021-01-19 05:00:00 14.6 7 Sur 14 Sudoeste 0 -- -- 76
2021-01-19 04:00:00 15 12 Sudoeste 15 Sudoeste 0 -- -- 74
2021-01-19 03:00:00 15.3 9 Sur 15 Sur 0 -- -- 72
2021-01-19 02:00:00 15.7 12 Sudoeste 19 Sudoeste 0 -- -- 72
2021-01-19 01:00:00 15.6 11 Sur 18 Sur 0 -- -- 72
2021-01-19 00:00:00 15.8 11 Sur 19 Sur 0 -- -- 73
2021-01-18 23:00:00 15.4 10 Sur 14 Sur 0 -- -- 76
2021-01-18 22:00:00 16 2 Sur 14 Oeste 0 -- -- 74
2021-01-18 21:00:00 15.7 5 Sudoeste 13 Sudoeste 0 -- -- 76
2021-01-18 20:00:00 16 8 Sudoeste 13 Sudoeste 0 -- -- 75
2021-01-18 19:00:00 16.2 8 Sudoeste 10 Sudoeste 0 -- -- 73
2021-01-18 18:00:00 17.2 5 Sur 8 Sudoeste 0 -- -- 72
2021-01-18 17:00:00 18.3 4 Sur 7 Sur 0 -- -- 68
2021-01-18 16:00:00 19.9 2 Oeste 8 Sur 0 -- -- 62
2021-01-18 15:00:00 21.6 7 Norte 20 Oeste 0 -- -- 58
2021-01-18 14:00:00 21.7 14 Noroeste 23 Noroeste 0 -- -- 56
2021-01-18 13:00:00 21.3 16 Noroeste 25 Noroeste 0 -- -- 58
2021-01-18 12:00:00 20.9 12 Noroeste 18 Norte 0 -- -- 62
2021-01-18 11:00:00 20.1 11 Sur 18 Sudeste 0 -- -- 63
2021-01-18 10:00:00 18.5 9 Sudeste 15 Sur 0 -- -- 64
2021-01-18 09:00:00 15.7 12 Sur 19 Sur 0 -- -- 73
2021-01-18 08:00:00 15.5 12 Sur 19 Sur 0 -- -- 72
2021-01-18 07:00:00 15.3 9 Sur 20 Sur 0 -- -- 73
2021-01-18 06:00:00 15.2 12 Sur 18 Sur 0 -- -- 74
2021-01-18 05:00:00 15.7 11 Sur 17 Sur 0 -- -- 73
2021-01-18 04:00:00 16 11 Sur 19 Sudoeste 0 -- -- 71
2021-01-18 03:00:00 16 9 Sudoeste 17 Sudoeste 0 -- -- 71
2021-01-18 02:00:00 16.4 13 Sudoeste 19 Sudoeste 0 -- -- 71
2021-01-18 01:00:00 16.3 15 Sudoeste 20 Sudoeste 0 -- -- 71
2021-01-18 00:00:00 16.6 5 Oeste 18 Oeste 0 -- -- 70
2021-01-17 23:00:00 16.5 8 Sur 14 Este 0 -- -- 71
2021-01-17 22:00:00 16.7 10 Sur 17 Sur 0 -- -- 70
2021-01-17 21:00:00 16.7 10 Sur 17 Sur 0 -- -- 69
2021-01-17 20:00:00 17.9 4 Norte 29 Nordeste 0 -- -- 66
2021-01-17 19:00:00 18 12 Nordeste 23 Nordeste 0 -- -- 71
2021-01-17 18:00:00 18.7 3 Norte 28 Noroeste 0 -- -- 67
2021-01-17 17:00:00 19.3 13 Norte 28 Noroeste 0 -- -- 68
2021-01-17 16:00:00 19.8 5 Noroeste 12 Oeste 0 -- -- 60
2021-01-17 15:00:00 21.2 6 Noroeste 15 Noroeste 0 -- -- 55
2021-01-17 14:00:00 21 7 Norte 10 Noroeste 0 -- -- 58
2021-01-17 13:00:00 20.4 3 Norte 16 Noroeste 0 -- -- 57
2021-01-17 12:00:00 20.4 12 Noroeste 25 Noroeste 0 -- -- 60
2021-01-17 11:00:00 20.1 17 Noroeste 26 Noroeste 0 -- -- 57
2021-01-17 10:00:00 18.8 9 Sudoeste 18 Sur 0 -- -- 58
2021-01-17 09:00:00 16.3 5 Sur 20 Sudeste 0 -- -- 66
2021-01-17 08:00:00 15.9 9 Sur 25 Sur 0 -- -- 66
2021-01-17 07:00:00 16.2 12 Sur 18 Sur 0 -- -- 65
2021-01-17 06:00:00 16.6 10 Sudeste 22 Sudeste 0 -- -- 65
2021-01-17 05:00:00 17 7 Sudeste 19 Nordeste 0 -- -- 66
2021-01-17 04:00:00 16.9 3 Sudeste 15 Este 0 -- -- 68
2021-01-17 03:00:00 16.9 8 Sur 15 Sudeste 0 -- -- 66
2021-01-17 02:00:00 17.9 8 Nordeste 32 Nordeste 0 -- -- 65
2021-01-17 01:00:00 18.2 19 Nordeste 29 Nordeste 0 -- -- 65
2021-01-17 00:00:00 18.5 16 Nordeste 30 Este 0 -- -- 67
2021-01-16 23:00:00 18.6 18 Nordeste 30 Nordeste 0 -- -- 67
2021-01-16 22:00:00 18.7 21 Nordeste 32 Nordeste 0 -- -- 69
2021-01-16 21:00:00 18.7 18 Nordeste 31 Nordeste 0 -- -- 69
2021-01-16 20:00:00 18.6 17 Nordeste 30 Nordeste 0 -- -- 72
2021-01-16 19:00:00 18.5 21 Nordeste 31 Nordeste 0 -- -- 73
2021-01-16 18:00:00 18.1 6 Nordeste 30 Nordeste 0 -- -- 67
2021-01-16 17:00:00 18.9 10 Nordeste 32 Nordeste 0 -- -- 65
2021-01-16 16:00:00 19.2 17 Nordeste 30 Nordeste 0 -- -- 66
2021-01-16 15:00:00 19.5 18 Nordeste 33 Nordeste 0 -- -- 64
2021-01-16 14:00:00 19.9 10 Nordeste 22 Este 0 -- -- 61
2021-01-16 13:00:00 19.4 13 Nordeste 28 Nordeste 0 -- -- 59
2021-01-16 12:00:00 19 17 Nordeste 36 Nordeste 0 -- -- 60
2021-01-16 11:00:00 19 20 Nordeste 41 Nordeste 0 -- -- 60
2021-01-16 10:00:00 17.8 15 Este 31 Este 0 -- -- 62
2021-01-16 09:00:00 17 15 Sudeste 28 Nordeste 0 -- -- 64
2021-01-16 08:00:00 17.6 20 Nordeste 35 Nordeste 0 -- -- 62
2021-01-16 07:00:00 17 10 Sudeste 33 Nordeste 0 -- -- 64
2021-01-16 06:00:00 17.6 22 Nordeste 35 Nordeste 0 -- -- 63
2021-01-16 05:00:00 17.8 20 Nordeste 37 Nordeste 0 -- -- 65
2021-01-16 04:00:00 17.9 18 Nordeste 30 Este 0 -- -- 66
2021-01-16 03:00:00 17.6 11 Este 31 Este 0 -- -- 66
2021-01-16 02:00:00 17.9 14 Este 28 Nordeste 0 -- -- 63
2021-01-16 01:00:00 18.1 19 Nordeste 32 Nordeste 0 -- -- 63
2021-01-16 00:00:00 18.1 17 Nordeste 31 Nordeste 0 -- -- 66
2021-01-15 23:00:00 18.1 18 Nordeste 33 Nordeste 0 -- -- 63
2021-01-15 22:00:00 18.2 18 Nordeste 30 Nordeste 0 -- -- 64
2021-01-15 21:00:00 18.2 17 Nordeste 33 Nordeste 0 -- -- 63
2021-01-15 20:00:00 18.2 19 Nordeste 35 Nordeste 0 -- -- 69
2021-01-15 19:00:00 18.4 19 Nordeste 34 Este 0 -- -- 71
2021-01-15 18:00:00 18.5 18 Nordeste 37 Este 0 -- -- 69
2021-01-15 17:00:00 18.5 21 Nordeste 30 Nordeste 0 -- -- 70
2021-01-15 16:00:00 18.6 17 Nordeste 33 Nordeste 0 -- -- 65
2021-01-15 15:00:00 18.6 17 Nordeste 38 Nordeste 0 -- -- 61
2021-01-15 14:00:00 18.9 22 Nordeste 35 Nordeste 0 -- -- 61
2021-01-15 13:00:00 18.8 15 Este 34 Nordeste 0 -- -- 61
2021-01-15 12:00:00 18.6 18 Nordeste 33 Este 0 -- -- 61
2021-01-15 11:00:00 18.3 19 Nordeste 28 Nordeste 0 -- -- 64
2021-01-15 10:00:00 17.6 10 Este 33 Nordeste 0 -- -- 59
2021-01-15 09:00:00 16.4 14 Sudeste 31 Este 0 -- -- 63
2021-01-15 08:00:00 17.6 21 Nordeste 33 Este 0 -- -- 62
2021-01-15 07:00:00 17.4 16 Este 30 Este 0 -- -- 65
2021-01-15 06:00:00 16.1 9 Sur 13 Sur 0 -- -- 65
2021-01-15 05:00:00 15.6 9 Sur 17 Sudeste 0 -- -- 64
2021-01-15 04:00:00 16.6 9 Sur 24 Este 0 -- -- 64
2021-01-15 03:00:00 18.1 15 Nordeste 29 Nordeste 0 -- -- 64
2021-01-15 02:00:00 18.1 15 Nordeste 32 Nordeste 0 -- -- 60
2021-01-15 01:00:00 18 20 Nordeste 31 Este 0 -- -- 68
2021-01-15 00:00:00 17.9 19 Este 34 Este 0 -- -- 65
2021-01-14 23:00:00 16.6 12 Sudeste 21 Este 0 -- -- 66
2021-01-14 22:00:00 17.2 9 Este 23 Este 0 -- -- 67
2021-01-14 21:00:00 16.8 8 Sudeste 18 Sudeste 0 -- -- 63
2021-01-14 20:00:00 16.7 10 Sudeste 22 Nordeste 0 -- -- 62
2021-01-14 19:00:00 18.3 15 Nordeste 29 Nordeste 0 -- -- 63
2021-01-14 18:00:00 18.4 14 Este 23 Este 0 -- -- 66
2021-01-14 17:00:00 18.5 14 Nordeste 23 Nordeste 0 -- -- 60
2021-01-14 16:00:00 18.7 13 Nordeste 23 Nordeste 0 -- -- 59
2021-01-14 15:00:00 18.9 18 Nordeste 33 Nordeste 0 -- -- 59
2021-01-14 14:00:00 19.1 19 Nordeste 28 Nordeste 0 -- -- 60
2021-01-14 13:00:00 19.2 13 Nordeste 27 Nordeste 0 -- -- 63
2021-01-14 12:00:00 20.7 8 Sur 16 Sur 0 -- -- 52
2021-01-14 11:00:00 20.5 6 Sur 13 Sudeste 0 -- -- 49
2021-01-14 10:00:00 18.1 9 Sur 15 Sur 0 -- -- 56
2021-01-14 09:00:00 15.6 7 Sur 16 Sur 0 -- -- 66
2021-01-14 08:00:00 15.9 10 Sur 20 Sudeste 0 -- -- 62
2021-01-14 07:00:00 16.1 11 Sudeste 23 Sudeste 0 -- -- 62
2021-01-14 06:00:00 16 10 Sudeste 23 Sudeste 0 -- -- 65
2021-01-14 05:00:00 15.9 12 Sur 19 Sudeste 0 -- -- 66
2021-01-14 04:00:00 15.5 13 Sur 24 Sudeste 0 -- -- 60
2021-01-14 03:00:00 16.1 10 Sur 22 Sudeste 0 -- -- 64
2021-01-14 02:00:00 16.2 13 Sur 24 Sur 0 -- -- 66
2021-01-14 01:00:00 15.8 12 Sur 25 Sudeste 0 -- -- 62
2021-01-14 00:00:00 16 12 Sur 22 Sur 0 -- -- 63
2021-01-13 23:00:00 16.3 14 Sudeste 25 Sudeste 0 -- -- 63
2021-01-13 22:00:00 16.4 11 Sudeste 23 Sudeste 0 -- -- 65
2021-01-13 21:00:00 16.7 11 Sudeste 24 Nordeste 0 -- -- 66
2021-01-13 20:00:00 16.6 9 Sudeste 29 Este 0 -- -- 64
2021-01-13 19:00:00 18 15 Este 29 Nordeste 0 -- -- 62
2021-01-13 18:00:00 18.1 18 Nordeste 30 Nordeste 0 -- -- 61
2021-01-13 17:00:00 18.2 17 Nordeste 31 Nordeste 0 -- -- 65
2021-01-13 16:00:00 18.3 19 Nordeste 31 Nordeste 0 -- -- 69
2021-01-13 15:00:00 18.4 18 Nordeste 32 Nordeste 0 -- -- 69
2021-01-13 14:00:00 18.3 18 Nordeste 32 Nordeste 0 -- -- 69
2021-01-13 13:00:00 18.3 18 Nordeste 32 Nordeste 0 -- -- 70
2021-01-13 12:00:00 18.2 20 Nordeste 34 Nordeste 0 -- -- 71
2021-01-13 11:00:00 18.2 18 Nordeste 30 Nordeste 0 -- -- 71
2021-01-13 10:00:00 18.5 9 Sudeste 20 Sur 0 -- -- 60
2021-01-13 09:00:00 16.1 10 Sur 27 Sudeste 0 -- -- 64
2021-01-13 08:00:00 16 12 Sudeste 24 Sudeste 0 -- -- 64
2021-01-13 07:00:00 16.1 15 Sudeste 24 Sudeste 0 -- -- 62
2021-01-13 06:00:00 16.1 12 Sur 23 Sudeste 0 -- -- 65
2021-01-13 05:00:00 16.6 9 Sudeste 29 Este 0 -- -- 66
2021-01-13 04:00:00 16.9 8 Sudeste 24 Sudeste 0 -- -- 71
2021-01-13 03:00:00 16.5 13 Sudeste 22 Sudeste 0 -- -- 71
2021-01-13 02:00:00 16 12 Sur 20 Sudeste 0 -- -- 68
2021-01-13 01:00:00 16.5 14 Sudeste 30 Sudeste 0 -- -- 68
2021-01-13 00:00:00 16.1 13 Sudeste 19 Sudeste 0 -- -- 67
2021-01-12 23:00:00 16.3 6 Sur 22 Sudeste 0 -- -- 67
2021-01-12 22:00:00 16.7 11 Sudeste 24 Sudeste 0 -- -- 66
2021-01-12 21:00:00 16.6 11 Sudeste 22 Sudeste 0 -- -- 69
2021-01-12 20:00:00 16.4 7 Sudeste 19 Sudeste 0 -- -- 70
2021-01-12 19:00:00 16.6 11 Sudeste 19 Sudeste 0 -- -- 68
2021-01-12 18:00:00 17 8 Sudeste 20 Este 0 -- -- 71
2021-01-12 17:00:00 17.4 6 Este 17 Este 0 -- -- 73
2021-01-12 16:00:00 17.7 4 Este 18 Sudeste 0 -- -- 71
2021-01-12 15:00:00 17.7 8 Este 21 Nordeste 0 -- -- 73
2021-01-12 14:00:00 17.5 12 Nordeste 33 Nordeste 0 -- -- 72
2021-01-12 13:00:00 18.1 14 Nordeste 26 Nordeste 0 -- -- 71
2021-01-12 12:00:00 18 14 Nordeste 24 Nordeste 0 -- -- 70
2021-01-12 11:00:00 18.1 9 Sudeste 19 Sudeste 0 -- -- 68
2021-01-12 10:00:00 16 15 Sur 22 Sudeste 0 -- -- 74
2021-01-12 09:00:00 16.2 12 Sur 19 Sudeste 0 -- -- 70
2021-01-12 08:00:00 16 12 Sudeste 22 Sudeste 0 -- -- 69
2021-01-12 07:00:00 16.1 11 Sudeste 27 Nordeste 0 -- -- 68
2021-01-12 06:00:00 17.1 16 Nordeste 27 Nordeste 0 -- -- 71
2021-01-12 05:00:00 16.2 12 Sudeste 23 Este 0 -- -- 69
2021-01-12 04:00:00 17.4 14 Nordeste 25 Nordeste 0 -- -- 70
2021-01-12 03:00:00 17.2 17 Nordeste 26 Nordeste 0 -- -- 70
2021-01-12 02:00:00 16.5 22 Nordeste 30 Nordeste 0 -- -- 75
2021-01-12 01:00:00 15.1 12 Sudeste 38 Nordeste 0 -- -- 77
2021-01-12 00:00:00 17.3 13 Norte 30 Norte 0 -- -- 70
2021-01-11 23:00:00 16.5 9 Sudeste 32 Este 0 -- -- 60
2021-01-11 22:00:00 16.7 10 Este 25 Sudeste 0 -- -- 67
2021-01-11 21:00:00 16.9 9 Sudeste 26 Sudeste 0 -- -- 63
2021-01-11 20:00:00 16.5 12 Sudeste 21 Sudeste 0 -- -- 61
2021-01-11 19:00:00 17.3 11 Este 27 Nordeste 0 -- -- 60
2021-01-11 18:00:00 17.8 12 Nordeste 27 Nordeste 0 -- -- 63
2021-01-11 17:00:00 17.8 15 Nordeste 26 Nordeste 0 -- -- 65
2021-01-11 16:00:00 17.6 14 Nordeste 26 Nordeste 0 -- -- 62
2021-01-11 15:00:00 17.7 13 Nordeste 25 Nordeste 0 -- -- 63
2021-01-11 14:00:00 17.9 13 Nordeste 22 Nordeste 0 -- -- 61
2021-01-11 13:00:00 18.4 12 Nordeste 23 Nordeste 0 -- -- 65
2021-01-11 12:00:00 17.9 15 Nordeste 27 Este 0 -- -- 63
2021-01-11 11:00:00 17.9 12 Nordeste 26 Nordeste 0 -- -- 62
2021-01-11 10:00:00 17.2 16 Nordeste 31 Nordeste 0 -- -- 62
2021-01-11 09:00:00 16.3 3 Sudoeste 27 Nordeste 0 -- -- 64
2021-01-11 08:00:00 17.3 15 Nordeste 35 Nordeste 0 -- -- 64
2021-01-11 07:00:00 17 19 Este 36 Este 0 -- -- 70
2021-01-11 06:00:00 16.5 6 Nordeste 19 Sudeste 0 -- -- 68
2021-01-11 05:00:00 16.6 8 Sudeste 34 Nordeste 0 -- -- 68
2021-01-11 04:00:00 17.3 21 Nordeste 34 Nordeste 0 -- -- 72
2021-01-11 03:00:00 16.8 10 Sudeste 30 Nordeste 0 -- -- 69
2021-01-11 02:00:00 17.6 15 Norte 28 Nordeste 0 -- -- 70
2021-01-11 01:00:00 17.8 22 Nordeste 33 Nordeste 0 -- -- 63
2021-01-11 00:00:00 17.8 23 Norte 32 Norte 0 -- -- 64
2021-01-10 23:00:00 17.8 19 Norte 32 Norte 0 -- -- 68
2021-01-10 22:00:00 17.9 22 Norte 31 Norte 0 -- -- 74
2021-01-10 21:00:00 18 17 Norte 29 Norte 0 -- -- 69
2021-01-10 20:00:00 17.9 15 Norte 32 Norte 0 -- -- 68
2021-01-10 19:00:00 18.1 16 Norte 27 Norte 0 -- -- 72
2021-01-10 18:00:00 17.9 14 Norte 26 Norte 0 -- -- 71
2021-01-10 17:00:00 17.9 19 Norte 31 Norte 0 -- -- 73
2021-01-10 16:00:00 18 20 Norte 31 Norte 0 -- -- 69
2021-01-10 15:00:00 18.2 15 Norte 30 Norte 0 -- -- 71
2021-01-10 14:00:00 18.1 15 Norte 37 Norte 0 -- -- 67
2021-01-10 13:00:00 17.9 6 Nordeste 30 Norte 0 -- -- 70
2021-01-10 12:00:00 17.9 14 Norte 29 Norte 0 -- -- 65
2021-01-10 11:00:00 17.7 19 Norte 31 Norte 0 -- -- 70
2021-01-10 10:00:00 17.5 8 Nordeste 24 Norte 0 -- -- 68
2021-01-10 09:00:00 17.3 20 Norte 31 Norte 0 -- -- 70
2021-01-10 08:00:00 17.3 21 Norte 31 Norte 0 -- -- 67
2021-01-10 07:00:00 17.4 14 Norte 31 Norte 0 -- -- 61
2021-01-10 06:00:00 17.4 24 Norte 36 Norte 0 -- -- 67
2021-01-10 05:00:00 16.8 12 Nordeste 37 Norte 0 -- -- 70
2021-01-10 04:00:00 17.5 16 Norte 28 Norte 0 -- -- 66
2021-01-10 03:00:00 17 18 Nordeste 32 Noroeste 0 -- -- 67
2021-01-10 02:00:00 15.9 5 Oeste 37 Noroeste 0 -- -- 72
2021-01-10 01:00:00 17.6 17 Norte 37 Norte 0 -- -- 64
2021-01-10 00:00:00 17.2 12 Nordeste 25 Nordeste 0 -- -- 60
2021-01-09 23:00:00 17.2 13 Norte 28 Nordeste 0 -- -- 67
2021-01-09 22:00:00 17.5 15 Nordeste 27 Nordeste 0 -- -- 62
2021-01-09 21:00:00 17.5 15 Nordeste 39 Norte 0 -- -- 61
2021-01-09 20:00:00 17.1 12 Norte 35 Norte 0 -- -- 66
2021-01-09 19:00:00 17.5 23 Nordeste 33 Nordeste 0 -- -- 59
2021-01-09 18:00:00 17.4 11 Norte 33 Nordeste 0 -- -- 61
2021-01-09 17:00:00 17.3 19 Nordeste 34 Norte 0 -- -- 63
2021-01-09 16:00:00 17.6 18 Norte 34 Norte 0 -- -- 63
2021-01-09 15:00:00 17.7 23 Norte 33 Norte 0 -- -- 61
2021-01-09 14:00:00 17.4 21 Norte 37 Norte 0 -- -- 66
2021-01-09 13:00:00 17.3 18 Norte 36 Norte 0 -- -- 65
2021-01-09 12:00:00 16.8 13 Norte 56 Norte 0 -- -- 72
2021-01-09 11:00:00 16.9 19 Norte 35 Norte 0 -- -- 64
2021-01-09 10:00:00 16.8 18 Norte 32 Norte 0 -- -- 67
2021-01-09 09:00:00 15.5 13 Noroeste 45 Norte 0 -- -- 73
2021-01-09 08:00:00 16.8 19 Norte 33 Norte 0 -- -- 65
2021-01-09 07:00:00 16.5 23 Norte 44 Norte 0 -- -- 69
2021-01-09 06:00:00 16.6 19 Norte 41 Norte 0 -- -- 67
2021-01-09 05:00:00 17.2 24 Norte 35 Norte 0 -- -- 70
2021-01-09 04:00:00 17 17 Norte 33 Norte 0 -- -- 69
2021-01-09 03:00:00 17.1 24 Norte 38 Noroeste 0 -- -- 69
2021-01-09 02:00:00 17 20 Norte 34 Noroeste 0 -- -- 64
2021-01-09 01:00:00 17.1 19 Norte 33 Norte 0 -- -- 66
2021-01-09 00:00:00 17.3 17 Norte 33 Norte 0 -- -- 71
2021-01-08 23:00:00 17.5 19 Norte 31 Norte 0 -- -- 70
2021-01-08 22:00:00 17.3 22 Norte 47 Norte 0 -- -- 70
2021-01-08 21:00:00 17.4 17 Norte 33 Noroeste 0 -- -- 69
2021-01-08 20:00:00 17.6 24 Norte 37 Norte 0 -- -- 72
2021-01-08 19:00:00 17.6 16 Norte 29 Norte 0 -- -- 69
2021-01-08 18:00:00 17.7 16 Norte 30 Noroeste 0 -- -- 69
2021-01-08 17:00:00 17.5 16 Norte 28 Noroeste 0 -- -- 75
2021-01-08 16:00:00 16.9 6 Nordeste 33 Noroeste 0 -- -- 77
2021-01-08 15:00:00 17.1 28 Noroeste 48 Noroeste 0 -- -- 77
2021-01-08 14:00:00 18.1 16 Norte 26 Noroeste 0 -- -- 71
2021-01-08 13:00:00 18 18 Norte 31 Noroeste 0 -- -- 73
2021-01-08 12:00:00 17.6 23 Noroeste 34 Noroeste 0 -- -- 71
2021-01-08 11:00:00 17.6 27 Norte 45 Norte 0 -- -- 79
2021-01-08 10:00:00 17 14 Norte 47 Noroeste 0 -- -- 80
2021-01-08 09:00:00 17.6 14 Noroeste 29 Noroeste 0 -- -- 78
2021-01-08 08:00:00 17.6 22 Noroeste 35 Noroeste 0 -- -- 78
2021-01-08 07:00:00 17.6 21 Noroeste 37 Noroeste 0 -- -- 81
2021-01-08 06:00:00 17.7 13 Noroeste 35 Noroeste 0 -- -- 80
2021-01-08 05:00:00 17.3 13 Oeste 43 Noroeste 0 -- -- 82
2021-01-08 04:00:00 17.5 13 Oeste 40 Noroeste 0 -- -- 82
2021-01-08 03:00:00 18 12 Noroeste 33 Oeste 0 -- -- 85
2021-01-08 02:00:00 18.1 24 Noroeste 43 Noroeste 0 -- -- 84
2021-01-08 01:00:00 18.5 20 Noroeste 39 Noroeste 0 -- -- 82
2021-01-08 00:00:00 19 14 Noroeste 34 Oeste 0 -- -- 82
2021-01-07 23:00:00 19.1 18 Oeste 40 Noroeste 0 -- -- 83
2021-01-07 22:00:00 19.8 27 Noroeste 72 Noroeste 0 -- -- 81
2021-01-07 21:00:00 19.8 41 Noroeste 78 Noroeste 0 -- -- 82
2021-01-07 20:00:00 20.8 43 Norte 82 Noroeste 0 -- -- 81
2021-01-07 19:00:00 20.9 36 Norte 62 Norte 0 -- -- 78
2021-01-07 18:00:00 21.1 30 Norte 75 Noroeste 0 -- -- 78
2021-01-07 17:00:00 21.1 30 Norte 79 Norte 0 -- -- 78
2021-01-07 16:00:00 21.4 41 Norte 101 Norte 0 -- -- 79
2021-01-07 15:00:00 21.5 57 Norte 90 Noroeste 0 -- -- 78
2021-01-07 14:00:00 21.5 53 Norte 101 Noroeste 0 -- -- 79
2021-01-07 13:00:00 21.5 59 Norte 97 Noroeste 0 -- -- 79
2021-01-07 12:00:00 21.3 40 Norte 96 Nordeste 0 -- -- 79
2021-01-07 11:00:00 21.2 38 Norte 80 Noroeste 0 -- -- 80
2021-01-07 10:00:00 21 41 Norte 93 Noroeste 0 -- -- 80
2021-01-07 09:00:00 20.8 45 Norte 86 Norte 0 -- -- 81
2021-01-07 08:00:00 20.6 41 Norte 87 Norte 0.2 -- -- 81
2021-01-07 07:00:00 20.9 51 Norte 100 Noroeste 0.2 -- -- 81
2021-01-07 06:00:00 20.7 35 Norte 80 Norte 0 -- -- 81
2021-01-07 05:00:00 20.4 42 Norte 92 Noroeste 3 -- -- 85
2021-01-07 04:00:00 21.1 41 Noroeste 76 Norte 0 -- -- 81
2021-01-07 03:00:00 21.2 23 Norte 78 Noroeste 0 -- -- 78
2021-01-07 02:00:00 21.2 33 Norte 66 Norte 0 -- -- 78
2021-01-07 01:00:00 21.2 36 Norte 78 Norte 0 -- -- 78
2021-01-07 00:00:00 21.3 31 Norte 70 Noroeste 0 -- -- 76
2021-01-06 23:00:00 21.3 39 Norte 74 Norte 0 -- -- 79
2021-01-06 22:00:00 21.2 36 Norte 72 Norte 0 -- -- 79
2021-01-06 21:00:00 21.1 36 Norte 65 Noroeste 0 -- -- 81
2021-01-06 20:00:00 21.1 35 Norte 61 Noroeste 0 -- -- 80
2021-01-06 19:00:00 21.3 32 Norte 66 Noroeste 0 -- -- 80
2021-01-06 18:00:00 21.4 39 Noroeste 83 Noroeste 0 -- -- 80
2021-01-06 17:00:00 21.4 36 Norte 71 Noroeste 0 -- -- 79
2021-01-06 16:00:00 21.3 41 Noroeste 70 Noroeste 0 -- -- 80
2021-01-06 15:00:00 21.4 39 Norte 69 Noroeste 0 -- -- 79
2021-01-06 14:00:00 21.5 30 Norte 72 Norte 0 -- -- 79
2021-01-06 13:00:00 21.3 37 Norte 75 Noroeste 0 -- -- 81
2021-01-06 12:00:00 21.1 41 Noroeste 82 Noroeste 0 -- -- 83
2021-01-06 11:00:00 20.7 44 Norte 93 Noroeste 1 -- -- 86
2021-01-06 10:00:00 20.4 49 Noroeste 105 Noroeste 9.4 -- -- 92
2021-01-06 09:00:00 21.5 40 Norte 84 Norte 0 -- -- 83
2021-01-06 08:00:00 21.4 48 Norte 77 Norte 0 -- -- 83
2021-01-06 07:00:00 21.4 22 Norte 77 Norte 0 -- -- 80
2021-01-06 06:00:00 21.3 38 Norte 76 Norte 0 -- -- 81
2021-01-06 05:00:00 21.1 32 Norte 63 Norte 0 -- -- 82
2021-01-06 04:00:00 20.8 14 Norte 52 Norte 1 -- -- 82
2021-01-06 03:00:00 21.1 20 Norte 46 Norte 0 -- -- 79
2021-01-06 02:00:00 20.9 16 Norte 37 Norte 0 -- -- 74
2021-01-06 01:00:00 20.8 15 Norte 44 Norte 0 -- -- 76
2021-01-06 00:00:00 20.5 21 Noroeste 38 Norte 0 -- -- 78
2021-01-05 23:00:00 20.6 21 Noroeste 39 Norte 0 -- -- 79
2021-01-05 22:00:00 20.3 16 Noroeste 31 Noroeste 0 -- -- 79
2021-01-05 21:00:00 20.1 14 Noroeste 30 Noroeste 0.4 -- -- 81
2021-01-05 20:00:00 20.7 13 Norte 33 Norte 0 -- -- 76
2021-01-05 19:00:00 20.6 10 Noroeste 36 Noroeste 0 -- -- 77
2021-01-05 18:00:00 20.9 21 Noroeste 49 Noroeste 0 -- -- 78
2021-01-05 17:00:00 21 18 Noroeste 47 Noroeste 0 -- -- 79
2021-01-05 16:00:00 21 20 Noroeste 34 Noroeste 0 -- -- 77
2021-01-05 15:00:00 21 21 Noroeste 48 Noroeste 0 -- -- 79
2021-01-05 14:00:00 20.8 21 Noroeste 46 Noroeste 0 -- -- 79
2021-01-05 13:00:00 20.8 17 Noroeste 30 Noroeste 0 -- -- 79
2021-01-05 12:00:00 20.4 8 Noroeste 27 Noroeste 0 -- -- 81
2021-01-05 11:00:00 20.2 9 Noroeste 31 Noroeste 0 -- -- 81
2021-01-05 10:00:00 19.4 8 Norte 22 Noroeste 0.2 -- -- 84
2021-01-05 09:00:00 18.6 7 Sudeste 10 Este 0.8 -- -- 89
2021-01-05 08:00:00 18.2 6 Sur 16 Este 0 -- -- 87
2021-01-05 07:00:00 19 4 Sudoeste 23 Noroeste 1.6 -- -- 85
2021-01-05 06:00:00 18.7 5 Sudoeste 13 Noroeste 0 -- -- 85
2021-01-05 05:00:00 18.2 3 Sudoeste 21 Noroeste 0 -- -- 84
2021-01-05 04:00:00 19.8 11 Noroeste 29 Noroeste 0 -- -- 82
2021-01-05 03:00:00 19.2 11 Noroeste 18 Noroeste 0 -- -- 85
2021-01-05 02:00:00 19.2 6 Oeste 23 Noroeste 0 -- -- 82
2021-01-05 01:00:00 19.2 3 Sudoeste 33 Sudoeste 0.4 -- -- 83
2021-01-05 00:00:00 20.3 14 Oeste 37 Noroeste 0.6 -- -- 81
2021-01-04 23:00:00 20.2 12 Noroeste 22 Noroeste 0 -- -- 77
2021-01-04 22:00:00 20 6 Oeste 30 Norte 0 -- -- 77
2021-01-04 21:00:00 20.4 9 Norte 32 Sur 0 -- -- 73
2021-01-04 20:00:00 20.2 6 Este 33 Norte 0 -- -- 77
2021-01-04 19:00:00 20.5 7 Sudoeste 59 Noroeste 0.8 -- -- 83
2021-01-04 18:00:00 21.5 20 Norte 68 Noroeste 0 -- -- 76
2021-01-04 17:00:00 21.5 13 Norte 37 Nordeste 0 -- -- 71
2021-01-04 16:00:00 21.7 23 Nordeste 98 Sudeste 0 -- -- 59
2021-01-04 15:00:00 21.2 42 Este 104 Sudeste 0 -- -- 65
2021-01-04 14:00:00 22.1 53 Este 99 Sudeste 0 -- -- 60
2021-01-04 13:00:00 21.1 23 Norte 64 Este 0 -- -- 69
2021-01-04 12:00:00 21.1 34 Este 78 Sudeste 0 -- -- 70
2021-01-04 11:00:00 21.5 30 Sudeste 66 Sudeste 0 -- -- 68
2021-01-04 10:00:00 21.4 5 Norte 22 Norte 0 -- -- 74
2021-01-04 09:00:00 21.2 6 Sudeste 60 Sudeste 0 -- -- 71
2021-01-04 08:00:00 20.8 25 Sudeste 51 Sudeste 0 -- -- 67
2021-01-04 07:00:00 20 5 Sur 35 Sudeste 0 -- -- 72
2021-01-04 06:00:00 21.1 17 Sudoeste 54 Sudoeste 0 -- -- 66
2021-01-04 05:00:00 21.5 4 Este 57 Sudoeste 0 -- -- 58
2021-01-04 04:00:00 21.5 21 Sur 45 Sudeste 0.2 -- -- 56
2021-01-04 03:00:00 18.7 4 Sur 13 Noroeste 0.2 -- -- 81
2021-01-04 02:00:00 18.9 4 Sudeste 21 Este 0 -- -- 74
2021-01-04 01:00:00 18.9 6 Sudeste 17 Sur 0 -- -- 74
2021-01-04 00:00:00 18.4 8 Sur 13 Sudoeste 0 -- -- 74
2021-01-03 23:00:00 18.4 5 Sur 14 Sur 0 -- -- 72
2021-01-03 22:00:00 18.2 7 Sudoeste 12 Sudoeste 0 -- -- 71
2021-01-03 21:00:00 18.4 7 Sur 13 Sur 0 -- -- 71
2021-01-03 20:00:00 18.5 5 Oeste 17 Sudoeste 0 -- -- 70
2021-01-03 19:00:00 18.6 5 Sudeste 14 Sudoeste 0 -- -- 66
2021-01-03 18:00:00 18.8 6 Sur 10 Sur 0 -- -- 66
2021-01-03 17:00:00 19.4 3 Este 9 Norte 0 -- -- 63
2021-01-03 16:00:00 19.9 5 Este 9 Este 0 -- -- 64
2021-01-03 15:00:00 20.2 3 Nordeste 8 Nordeste 0 -- -- 61
2021-01-03 14:00:00 20.4 4 Nordeste 8 Nordeste 0 -- -- 63
2021-01-03 13:00:00 19.9 3 Nordeste 9 Noroeste 0 -- -- 65
2021-01-03 12:00:00 18.8 6 Noroeste 9 Noroeste 0 -- -- 70
2021-01-03 11:00:00 17.7 0 Calma 8 Sudoeste 0 -- -- 75
2021-01-03 10:00:00 16.5 7 Sudoeste 12 Sur 0 -- -- 80
2021-01-03 09:00:00 16.2 7 Sur 11 Sur 0.2 -- -- 81
2021-01-03 08:00:00 16.7 6 Sur 9 Sur 0 -- -- 77
2021-01-03 07:00:00 17.1 8 Sudeste 13 Sudeste 0 -- -- 69
2021-01-03 06:00:00 17.3 4 Sudoeste 14 Sudoeste 0 -- -- 67
2021-01-03 05:00:00 16.8 7 Sudoeste 11 Sudoeste 0 -- -- 69
2021-01-03 04:00:00 16.8 7 Sudoeste 11 Sudoeste 0 -- -- 69
2021-01-03 03:00:00 17.1 9 Sudoeste 13 Sudoeste 0 -- -- 73
2021-01-03 02:00:00 17 8 Sudoeste 12 Sudoeste 0 -- -- 74
2021-01-03 01:00:00 16.6 6 Sudoeste 10 Sudoeste 0 -- -- 75
2021-01-03 00:00:00 17 5 Sur 16 Sudoeste 0 -- -- 71
2021-01-02 23:00:00 17.2 13 Sudoeste 17 Sudoeste 0 -- -- 70
2021-01-02 22:00:00 17.2 9 Sudoeste 14 Sudoeste 0 -- -- 71
2021-01-02 21:00:00 17.3 2 Sudeste 12 Sur 0 -- -- 70
2021-01-02 20:00:00 17.3 6 Sudoeste 14 Sudoeste 0 -- -- 70
2021-01-02 19:00:00 18.4 3 Sudeste 19 Nordeste 0 -- -- 71
2021-01-02 18:00:00 18.5 5 Norte 14 Nordeste 0 -- -- 71
2021-01-02 17:00:00 19 5 Sudoeste 16 Norte 0 -- -- 71
2021-01-02 16:00:00 19.4 10 Norte 23 Nordeste 0 -- -- 70
2021-01-02 15:00:00 19.3 13 Nordeste 25 Nordeste 0 -- -- 69
2021-01-02 14:00:00 19.1 14 Nordeste 25 Nordeste 0 -- -- 69
2021-01-02 13:00:00 18.9 6 Noroeste 14 Sudoeste 0 -- -- 72